Grassington, United Kingdom
Current Conditions -  °F | °C
As of 7:50 AM on Wednesday 26 Nov 2014 (Local Time) from EGNM Reporting Station
Light Rain Light Rain  
Wind Chill: 37°   Ceiling: 3500
Heat Index: 41°   Visibility: 1.8mi
Dew Point: 41°   Wind: 6mph
Humidity: 100%   Direction: 50°NE
Pressure: 29.94"   Gusts: NA
Location:  54.07°N, 2°W
Report Text: EGNM 260750Z 05005KT 020V090 3000 -RADZ BR FEW002 SCT011 BKN035 05/05 Q1014
Loading
Personal Weather Stations






























Interactive Weather Map New forecast layout! Learn more

10-Day Weather Forecast

Advertisements
Track Severe Weather on mobile